Share

Al-Shuaiba, Kuwait

6:43 AM AST on April 24, 2014 (GMT +0300)
Kuwait International (OKBK) Elev 180 ft | 29.22 °N, 47.98 °E | Change Station

Current weather conditions updated 43 minutes ago

Clear
Clear
81 °F
Feels Like 81 °F
N
10
Wind Variable Wind from NNE
Sunrise 5:12 AM
Sunset 6:18 PM
Moon Waning Crescent

Today is forecast to be Much Cooler than yesterday.

Pressure 29.86 in
Visibility -9999.0 miles
Clouds
Dew Point 48 °F
Humidity 32%
Rainfall 0.00 in
Snow Depth Not available.
UV Not available.
Pollen Not available.
Air Quality Not available.
Flu Activity Not available.
METAR OKBK 240300Z 02009KT CAVOK 27/09 Q1011 NOSIG

More Conditions Fewer Conditions

Pressure 29.86 in
Visibility -9999.0 miles
Clouds
Dew Point 48 °F
Humidity 32%
Rainfall 0.00 in
Snow Depth Not available.
UV Not available.
Pollen Not available.
Air Quality Not available.
Flu Activity Not available.
METAR OKBK 240300Z 02009KT CAVOK 27/09 Q1011 NOSIG

More Conditions Fewer Conditions

10-Day Weather Forecast

Almanac

Astronomy

Apr. 24, 2014 Rise Set
Actual Time 5:12 AM AST 6:18 PM AST
Civil Twilight 4:48 AM AST 6:43 PM AST
Nautical Twilight 4:18 AM AST 7:12 PM AST
Astronomical Twilight 3:48 AM AST 7:43 PM AST
Moon 1:43 AM AST 1:32 PM AST
Length of Visible Light 13h 55m
Length of Day
13h 06m
Tomorrow will be 1m 33s longer.
Waning Crescent, 30% of the Moon is Illuminated
Apr 23
Waning Crescent
Apr 29
New
May 6
First Quarter
May 14
Full
May 21
Last Quarter

Yesterday's Extremes

Country Highs Country Lows

Community

  • Balance
    Balance
  • Nestled In
    Nestled In
  • Stunning Sunrise
    Stunning Sunrise
  • spring flowers
    spring flowers
  • Earth Day Spectrum Ove' Blue
    Earth Day Spectrum Ove' Blue

WunderPhotos

Upload Photos

1,704,542 photos uploaded!

WunderBlogs® & News

Nearby

Snow Depth

Not available.

Coastal Water Temperatures

Place Temperature
No Stations Reporting

Earthquake Activity

City Distance Mag. Time & Date
No recent earthquake activity has been reported nearby.
Minimum magnitude displayed is 2.5.

Nearby Weather Stations

Station Location Temp. Heat Index Dew Point Humidity Wind Precip. Elev Updated Type
Zahra, Zahra 81.2 °F 80 °F 50 °F 34% WNW  at  2.0 mph 0.00 in / hr 151 ft 6:29 AM AST Normal
Kuwait City 79.9 °F 80 °F 55 °F 43% North  at  4.0 mph 0.00 in / hr 66 ft 6:32 AM AST Normal
Abdullah Al-Salem Area, Abdullah Alsalem 79.9 °F 80 °F 53 °F 39% North  at  8.0 mph 0.00 in / hr 59 ft 6:37 AM AST Normal

Show More Stations Show Fewer Stations

What do you think?

We're not finished. Please let us know what you like, what you don't like, and what you are still missing.